createdAt,value
2022-12-17T00:00:28.002Z,13.6
2022-12-17T00:02:26.203Z,13.43
2022-12-17T00:04:26.051Z,13.48
2022-12-17T00:06:26.065Z,13.29
2022-12-17T00:08:07.335Z,13.43
2022-12-17T00:10:07.322Z,13.33
2022-12-17T00:12:07.320Z,13.4
2022-12-17T00:14:07.358Z,13.28
2022-12-17T00:16:07.364Z,13.18
2022-12-17T00:18:07.430Z,13.24
2022-12-17T00:20:07.309Z,13.25
2022-12-17T00:23:26.148Z,13.34
2022-12-17T00:25:26.094Z,13.29
2022-12-17T00:27:26.044Z,13.35
2022-12-17T00:29:26.151Z,13.26
2022-12-17T00:31:26.109Z,13.31
2022-12-17T00:33:26.116Z,13.24
2022-12-17T00:35:26.066Z,13.23
2022-12-17T00:38:40.645Z,13.11
2022-12-17T00:40:40.626Z,13.14
2022-12-17T00:42:40.630Z,13.07
2022-12-17T00:44:40.615Z,13.08
2022-12-17T00:46:40.698Z,13.03
2022-12-17T00:48:40.686Z,13.01
2022-12-17T00:50:40.732Z,12.96
2022-12-17T00:53:06.816Z,12.99
2022-12-17T00:55:06.743Z,12.95
2022-12-17T00:57:06.789Z,13.02
2022-12-17T00:59:06.746Z,12.91
2022-12-17T01:01:06.969Z,12.92
2022-12-17T01:03:06.800Z,12.97
2022-12-17T01:05:06.793Z,12.94
2022-12-17T01:07:06.774Z,12.89
2022-12-17T01:09:00.399Z,12.87
2022-12-17T01:11:00.377Z,12.95
2022-12-17T01:13:00.407Z,12.85
2022-12-17T01:15:00.350Z,12.84
2022-12-17T01:17:00.385Z,12.78
2022-12-17T01:19:00.365Z,12.77
2022-12-17T01:21:00.399Z,12.89
2022-12-17T01:23:56.954Z,12.79
2022-12-17T01:25:56.994Z,12.77
2022-12-17T01:27:56.965Z,12.75
2022-12-17T01:29:56.971Z,12.74
2022-12-17T01:31:57.121Z,12.76
2022-12-17T01:33:56.970Z,12.74
2022-12-17T01:35:56.945Z,12.66
2022-12-17T01:39:23.577Z,12.6
2022-12-17T01:41:23.499Z,12.8
2022-12-17T01:43:23.500Z,12.76
2022-12-17T01:45:23.599Z,12.82
2022-12-17T01:47:23.554Z,12.74
2022-12-17T01:49:23.560Z,12.66
2022-12-17T01:51:23.585Z,12.54
2022-12-17T01:54:22.813Z,12.65
2022-12-17T01:56:22.853Z,12.49
2022-12-17T01:58:22.835Z,12.7
2022-12-17T02:00:22.858Z,12.68
2022-12-17T02:02:23.082Z,12.63
2022-12-17T02:04:22.865Z,12.56
2022-12-17T02:06:22.785Z,12.38
2022-12-17T02:09:21.645Z,12.54
2022-12-17T02:11:21.493Z,12.39
2022-12-17T02:13:21.525Z,12.41
2022-12-17T02:15:21.499Z,12.58
2022-12-17T02:17:21.576Z,12.6
2022-12-17T02:19:21.514Z,12.43
2022-12-17T02:21:21.527Z,12.52
2022-12-17T02:24:19.898Z,12.44
2022-12-17T02:26:19.797Z,12.46
2022-12-17T02:28:19.812Z,12.58
2022-12-17T02:30:19.831Z,12.46
2022-12-17T02:32:19.808Z,12.35
2022-12-17T02:34:19.792Z,12.42
2022-12-17T02:36:19.991Z,12.27
2022-12-17T02:39:19.971Z,12.07
2022-12-17T02:41:19.950Z,12.23
2022-12-17T02:43:19.936Z,11.95
2022-12-17T02:45:19.934Z,12.04
2022-12-17T02:47:19.967Z,12.04
2022-12-17T02:49:19.963Z,11.91
2022-12-17T02:51:20.119Z,12.11
2022-12-17T02:54:43.981Z,12.08
2022-12-17T02:56:43.937Z,12.01
2022-12-17T02:58:43.983Z,12.14
2022-12-17T03:00:44.048Z,12.03
2022-12-17T03:02:44.058Z,12.09
2022-12-17T03:04:43.953Z,11.89
2022-12-17T03:06:43.967Z,12
2022-12-17T03:09:46.923Z,11.8
2022-12-17T03:11:46.932Z,11.75
2022-12-17T03:13:46.895Z,11.84
2022-12-17T03:15:46.926Z,11.88
2022-12-17T03:17:46.955Z,11.66
2022-12-17T03:19:46.869Z,11.68
2022-12-17T03:21:46.962Z,11.88
2022-12-17T03:25:30.711Z,11.5
2022-12-17T03:27:30.729Z,11.72
2022-12-17T03:29:30.783Z,11.77
2022-12-17T03:31:30.824Z,11.71
2022-12-17T03:33:30.699Z,11.8
2022-12-17T03:35:30.717Z,11.74
2022-12-17T03:37:30.691Z,11.66
2022-12-17T03:40:21.416Z,11.6
2022-12-17T03:42:21.432Z,11.69
2022-12-17T03:44:21.441Z,11.64
2022-12-17T03:46:21.432Z,11.58
2022-12-17T03:48:21.426Z,11.62
2022-12-17T03:50:21.413Z,11.62
2022-12-17T03:52:21.368Z,11.56
2022-12-17T03:55:32.788Z,11.71
2022-12-17T03:57:32.749Z,11.71
2022-12-17T03:59:32.757Z,11.83
2022-12-17T04:01:32.905Z,11.76
2022-12-17T04:03:33.020Z,11.37
2022-12-17T04:05:32.738Z,11.64
2022-12-17T04:07:32.742Z,11.64
2022-12-17T04:10:40.127Z,11.42
2022-12-17T04:12:40.150Z,11.62
2022-12-17T04:14:40.153Z,11.43
2022-12-17T04:16:40.228Z,11.55
2022-12-17T04:18:40.148Z,11.42
2022-12-17T04:20:40.139Z,11.62
2022-12-17T04:22:40.127Z,11.47
2022-12-17T04:25:31.896Z,11.48
2022-12-17T04:27:31.784Z,11.49
2022-12-17T04:29:31.859Z,11.46
2022-12-17T04:31:31.786Z,11.41
2022-12-17T04:33:31.792Z,11.37
2022-12-17T04:35:31.757Z,11.42
2022-12-17T04:37:31.850Z,11.2
2022-12-17T04:40:57.029Z,11.14
2022-12-17T04:42:57.062Z,11.42
2022-12-17T04:44:57.016Z,11.42
2022-12-17T04:46:57.089Z,11.4
2022-12-17T04:48:57.060Z,11.4
2022-12-17T04:50:57.217Z,11.38
2022-12-17T04:52:57.073Z,11.38
2022-12-17T04:56:36.140Z,11.59
2022-12-17T04:58:36.170Z,11.63
2022-12-17T05:00:36.649Z,11.08
2022-12-17T05:02:41.025Z,11.46
2022-12-17T05:04:36.079Z,11.44
2022-12-17T05:06:36.088Z,11.56
2022-12-17T05:08:41.180Z,11.48
2022-12-17T05:10:51.170Z,11.56
2022-12-17T05:12:51.226Z,11.68
2022-12-17T05:14:51.232Z,11.73
2022-12-17T05:16:51.262Z,11.58
2022-12-17T05:18:51.191Z,11.45
2022-12-17T05:20:51.157Z,11.48
2022-12-17T05:22:51.181Z,11.35
2022-12-17T05:24:51.180Z,11.49
2022-12-17T05:26:04.448Z,11.63
2022-12-17T05:28:04.401Z,11.81
2022-12-17T05:30:04.413Z,11.85
2022-12-17T05:32:04.439Z,11.92
2022-12-17T05:34:04.428Z,11.08
2022-12-17T05:36:04.396Z,11.31
2022-12-17T05:38:04.429Z,10.97
2022-12-17T05:40:07.862Z,11.15
2022-12-17T05:41:22.507Z,11.15
2022-12-17T05:43:22.517Z,11.32
2022-12-17T05:45:22.491Z,11.3
2022-12-17T05:47:22.529Z,11.21
2022-12-17T05:49:22.507Z,10.89
2022-12-17T05:51:22.473Z,11.06
2022-12-17T05:53:22.542Z,11.21
2022-12-17T05:55:22.515Z,11.38
2022-12-17T05:57:08.867Z,11.43
2022-12-17T05:59:08.879Z,11.28
2022-12-17T06:01:09.116Z,11.26
2022-12-17T06:03:08.960Z,10.96
2022-12-17T06:05:08.868Z,11.4
2022-12-17T06:07:08.861Z,11.49
2022-12-17T06:09:08.817Z,11.71
2022-12-17T06:12:13.543Z,11.57
2022-12-17T06:14:13.588Z,11.46
2022-12-17T06:16:13.744Z,11.65
2022-12-17T06:18:16.586Z,11.84
2022-12-17T06:20:13.512Z,12.11
2022-12-17T06:22:13.540Z,11.96
2022-12-17T06:24:13.527Z,11.7
2022-12-17T06:26:46.456Z,12.19
2022-12-17T06:28:46.620Z,12.34
2022-12-17T06:30:46.453Z,12.32
2022-12-17T06:32:46.487Z,12.27
2022-12-17T06:34:46.422Z,12.3
2022-12-17T06:36:46.570Z,12.33
2022-12-17T06:38:46.464Z,12.05
2022-12-17T06:40:46.486Z,12.46
2022-12-17T06:42:16.285Z,12.61
2022-12-17T06:44:16.393Z,12.6
2022-12-17T06:46:16.595Z,12.74
2022-12-17T06:48:16.330Z,12.58
2022-12-17T06:50:16.397Z,12.68
2022-12-17T06:52:16.392Z,12.74
2022-12-17T06:54:16.416Z,12.53
2022-12-17T06:57:53.607Z,12.48
2022-12-17T06:59:53.592Z,12.58
2022-12-17T07:01:53.659Z,12.38
2022-12-17T07:03:53.613Z,12.45
2022-12-17T07:05:53.590Z,12.39
2022-12-17T07:07:53.592Z,12.39
2022-12-17T07:09:53.559Z,12.35
2022-12-17T07:13:01.177Z,12.14
2022-12-17T07:15:01.184Z,12.11
2022-12-17T07:17:01.173Z,12.18
2022-12-17T07:19:01.186Z,12.16
2022-12-17T07:21:01.254Z,12.18
2022-12-17T07:23:01.134Z,12.03
2022-12-17T07:25:01.195Z,12.1
2022-12-17T07:27:44.111Z,12.09
2022-12-17T07:29:44.049Z,12.16
2022-12-17T07:31:44.192Z,12.19
2022-12-17T07:33:44.066Z,12.28
2022-12-17T07:35:44.094Z,12.28
2022-12-17T07:37:46.238Z,12.38
2022-12-17T07:39:44.082Z,12.38
2022-12-17T07:43:10.374Z,12.41
2022-12-17T07:45:10.333Z,12.32
2022-12-17T07:47:10.365Z,12.31
2022-12-17T07:49:10.359Z,12.38
2022-12-17T07:51:10.320Z,12.47
2022-12-17T07:53:10.395Z,12.04
2022-12-17T07:55:13.166Z,12.2
2022-12-17T07:57:47.856Z,12.04
2022-12-17T07:59:47.900Z,12.21
2022-12-17T08:01:48.066Z,12.26
2022-12-17T08:03:47.988Z,12.3
2022-12-17T08:05:47.891Z,12.17
2022-12-17T08:07:47.829Z,12.33
2022-12-17T08:09:48.014Z,12.6
2022-12-17T08:11:47.811Z,12.38
2022-12-17T08:12:56.883Z,12.3
2022-12-17T08:14:56.202Z,12.32
2022-12-17T08:16:56.276Z,12.35
2022-12-17T08:18:56.250Z,12.53
2022-12-17T08:20:56.172Z,12.77
2022-12-17T08:22:56.195Z,12.85
2022-12-17T08:24:56.169Z,12.86
2022-12-17T08:26:56.152Z,13.04
2022-12-17T08:28:48.853Z,12.9
2022-12-17T08:30:21.579Z,12.87
2022-12-17T08:32:21.431Z,12.72
2022-12-17T08:34:21.472Z,12.87
2022-12-17T08:36:21.491Z,13.17
2022-12-17T08:38:21.434Z,13.12
2022-12-17T08:40:21.402Z,13.2
2022-12-17T08:43:14.751Z,13.1
2022-12-17T08:45:14.749Z,13.05
2022-12-17T08:47:14.824Z,12.93
2022-12-17T08:49:14.705Z,13.13
2022-12-17T08:51:14.750Z,13.23
2022-12-17T08:53:14.684Z,13.35
2022-12-17T08:55:14.741Z,13.57
2022-12-17T08:57:26.973Z,13.32
2022-12-17T08:59:24.947Z,13.3
2022-12-17T09:01:25.097Z,13.5
2022-12-17T09:03:25.024Z,13.48
2022-12-17T09:05:25.049Z,13.49
2022-12-17T09:07:24.969Z,13.37
2022-12-17T09:09:24.919Z,13.47
2022-12-17T09:11:24.998Z,13.43
2022-12-17T09:14:08.722Z,13.27
2022-12-17T09:16:08.724Z,13.36
2022-12-17T09:18:08.696Z,13.58
2022-12-17T09:20:08.696Z,13.5
2022-12-17T09:22:08.690Z,13.55
2022-12-17T09:24:08.712Z,13.49
2022-12-17T09:26:08.689Z,13.67
2022-12-17T09:29:33.663Z,13.62
2022-12-17T09:31:37.144Z,13.64
2022-12-17T09:33:33.827Z,13.72
2022-12-17T09:35:33.611Z,13.8
2022-12-17T09:37:33.655Z,13.82
2022-12-17T09:39:33.638Z,13.91
2022-12-17T09:41:33.599Z,13.97
2022-12-17T09:44:58.956Z,13.98
2022-12-17T09:46:58.958Z,13.9
2022-12-17T09:48:58.965Z,13.88
2022-12-17T09:50:59.073Z,13.78
2022-12-17T09:52:58.971Z,13.83
2022-12-17T09:55:01.329Z,13.96
2022-12-17T09:56:59.089Z,13.93
2022-12-17T09:59:15.917Z,13.7
2022-12-17T10:01:15.938Z,13.37
2022-12-17T10:03:16.112Z,13.74
2022-12-17T10:05:16.366Z,13.94
2022-12-17T10:07:15.904Z,13.94
2022-12-17T10:09:15.918Z,13.42
2022-12-17T10:11:15.891Z,13.45
2022-12-17T10:13:15.822Z,13.33
2022-12-17T10:15:06.780Z,13.2
2022-12-17T10:17:11.564Z,13.23
2022-12-17T10:19:06.861Z,13.22
2022-12-17T10:21:06.813Z,13.29
2022-12-17T10:23:06.810Z,13.04
2022-12-17T10:25:06.973Z,12.64
2022-12-17T10:27:06.777Z,12.69
2022-12-17T10:29:49.952Z,12.92
2022-12-17T10:31:49.944Z,12.96
2022-12-17T10:33:49.902Z,13.12
2022-12-17T10:35:49.950Z,13.07
2022-12-17T10:37:49.870Z,13.29
2022-12-17T10:39:49.927Z,13.53
2022-12-17T10:41:49.989Z,13.92
2022-12-17T10:45:40.000Z,14.53
2022-12-17T10:47:39.943Z,14.87
2022-12-17T10:49:40.032Z,14.91
2022-12-17T10:51:40.097Z,14.96
2022-12-17T10:53:40.407Z,15.06
2022-12-17T10:55:40.018Z,15.1
2022-12-17T10:57:39.878Z,15.14
2022-12-17T11:00:30.855Z,14.79
2022-12-17T11:02:31.117Z,14.3
2022-12-17T11:04:30.932Z,14.11
2022-12-17T11:06:30.990Z,13.75
2022-12-17T11:08:30.859Z,13.22
2022-12-17T11:10:30.847Z,13.1
2022-12-17T11:12:31.416Z,13.46
2022-12-17T11:15:48.014Z,13.63
2022-12-17T11:17:47.942Z,13.81
2022-12-17T11:19:48.081Z,14
2022-12-17T11:21:48.171Z,13.64
2022-12-17T11:23:48.059Z,13.67
2022-12-17T11:25:48.133Z,13.69
2022-12-17T11:27:48.079Z,13.8
2022-12-17T11:30:37.182Z,13.61
2022-12-17T11:32:37.067Z,13.54
2022-12-17T11:34:37.037Z,13.6
2022-12-17T11:36:39.174Z,13.68
2022-12-17T11:38:37.527Z,13.87
2022-12-17T11:40:37.070Z,13.8
2022-12-17T11:42:36.894Z,13.96
2022-12-17T11:45:52.308Z,13.49
2022-12-17T11:47:56.093Z,13.54
2022-12-17T11:49:52.013Z,13.8
2022-12-17T11:51:52.073Z,13.95
2022-12-17T11:53:52.042Z,14.01
2022-12-17T11:55:52.004Z,14.02
2022-12-17T11:57:52.112Z,14.01
2022-12-17T12:01:33.606Z,14
2022-12-17T12:03:33.442Z,13.73
2022-12-17T12:05:33.462Z,13.73
2022-12-17T12:07:33.455Z,14.01
2022-12-17T12:09:33.481Z,13.95
2022-12-17T12:11:33.405Z,13.95
2022-12-17T12:13:33.391Z,14.19
2022-12-17T12:16:42.108Z,13.85
2022-12-17T12:18:38.985Z,13.57
2022-12-17T12:20:38.076Z,12.84
2022-12-17T12:22:38.013Z,13.07
2022-12-17T12:24:37.996Z,12.77
2022-12-17T12:26:38.041Z,12.97
2022-12-17T12:28:38.399Z,13.37
2022-12-17T12:31:21.059Z,13.81
2022-12-17T12:33:21.128Z,13.83
2022-12-17T12:35:21.107Z,13.77
2022-12-17T12:37:21.030Z,13.88
2022-12-17T12:39:21.097Z,13.85
2022-12-17T12:41:21.101Z,13.96
2022-12-17T12:43:21.077Z,13.91
2022-12-17T12:46:20.383Z,13.84
2022-12-17T12:48:20.343Z,13.93
2022-12-17T12:50:20.336Z,14.07
2022-12-17T12:52:20.361Z,14.16
2022-12-17T12:54:20.317Z,14.17
2022-12-17T12:56:20.356Z,14.25
2022-12-17T12:58:20.272Z,14.15
2022-12-17T13:00:20.402Z,14.18
2022-12-17T13:02:17.922Z,14.38
2022-12-17T13:04:17.700Z,14.5
2022-12-17T13:06:17.789Z,14.52
2022-12-17T13:08:17.907Z,14.64
2022-12-17T13:10:17.730Z,14.72
2022-12-17T13:12:17.769Z,14.66
2022-12-17T13:14:17.690Z,14.46
2022-12-17T13:16:54.547Z,14.25
2022-12-17T13:18:54.465Z,14.43
2022-12-17T13:20:54.400Z,14.57
2022-12-17T13:22:54.900Z,14.68
2022-12-17T13:24:54.575Z,14.65
2022-12-17T13:26:54.475Z,14.63
2022-12-17T13:28:54.599Z,14.45
2022-12-17T13:32:01.913Z,14.54
2022-12-17T13:34:01.860Z,14.54
2022-12-17T13:36:01.971Z,14.51
2022-12-17T13:38:01.833Z,14.25
2022-12-17T13:40:01.862Z,14.37
2022-12-17T13:42:01.894Z,14.35
2022-12-17T13:44:01.865Z,14.21
2022-12-17T13:47:29.021Z,14.34
2022-12-17T13:49:28.702Z,14.13
2022-12-17T13:51:28.857Z,14.08
2022-12-17T13:53:28.699Z,14.08
2022-12-17T13:55:28.636Z,14.04
2022-12-17T13:57:28.684Z,13.99
2022-12-17T13:59:28.658Z,13.88
2022-12-17T14:02:48.422Z,13.85
2022-12-17T14:04:48.461Z,13.79
2022-12-17T14:06:48.417Z,13.74
2022-12-17T14:08:48.331Z,13.68
2022-12-17T14:10:48.429Z,13.81
2022-12-17T14:12:48.379Z,13.69
2022-12-17T14:14:48.280Z,13.63
2022-12-17T14:17:32.853Z,13.63
2022-12-17T14:19:32.811Z,13.65
2022-12-17T14:21:32.791Z,13.61
2022-12-17T14:23:32.833Z,13.66
2022-12-17T14:25:32.859Z,13.49
2022-12-17T14:27:32.864Z,13.68
2022-12-17T14:29:32.825Z,13.75
2022-12-17T14:32:45.031Z,13.88
2022-12-17T14:34:45.164Z,13.75
2022-12-17T14:36:45.036Z,13.45
2022-12-17T14:38:48.290Z,13.32
2022-12-17T14:40:44.984Z,13.23
2022-12-17T14:42:45.042Z,13.21
2022-12-17T14:44:45.127Z,13.25
2022-12-17T14:47:32.924Z,13.38
2022-12-17T14:49:32.838Z,13.43
2022-12-17T14:51:32.853Z,13.43
2022-12-17T14:53:32.675Z,13.28
2022-12-17T14:55:32.766Z,13.16
2022-12-17T14:57:32.690Z,13.11
2022-12-17T14:59:32.716Z,12.98
2022-12-17T15:01:32.799Z,12.99
2022-12-17T15:02:42.877Z,13.02
2022-12-17T15:04:42.658Z,12.99
2022-12-17T15:06:42.621Z,13.05
2022-12-17T15:08:42.663Z,13.17
2022-12-17T15:10:42.723Z,13.18
2022-12-17T15:12:42.648Z,13.1
2022-12-17T15:14:42.749Z,13.17
2022-12-17T15:16:42.735Z,13.16
2022-12-17T15:18:35.562Z,13.07
2022-12-17T15:20:35.191Z,13.08
2022-12-17T15:22:35.055Z,13.01
2022-12-17T15:24:35.198Z,12.99
2022-12-17T15:26:35.190Z,12.88
2022-12-17T15:28:35.404Z,12.83
2022-12-17T15:30:35.296Z,12.83
2022-12-17T15:33:13.021Z,12.65
2022-12-17T15:35:13.061Z,12.61
2022-12-17T15:37:12.838Z,12.54
2022-12-17T15:39:12.903Z,12.58
2022-12-17T15:41:12.862Z,12.57
2022-12-17T15:43:12.942Z,12.59
2022-12-17T15:45:12.820Z,12.66
2022-12-17T15:48:54.758Z,12.64
2022-12-17T15:50:54.760Z,12.68
2022-12-17T15:52:54.712Z,12.6
2022-12-17T15:54:54.724Z,12.71
2022-12-17T15:56:54.680Z,12.68
2022-12-17T15:58:54.670Z,12.66
2022-12-17T16:00:54.727Z,12.63
2022-12-17T16:03:26.364Z,12.73
2022-12-17T16:05:26.320Z,12.68
2022-12-17T16:07:26.309Z,12.73
2022-12-17T16:09:26.226Z,12.63
2022-12-17T16:11:26.276Z,12.68
2022-12-17T16:13:26.330Z,12.68
2022-12-17T16:15:26.353Z,12.69
2022-12-17T16:17:26.722Z,12.68
2022-12-17T16:19:18.844Z,12.62
2022-12-17T16:21:18.763Z,12.55
2022-12-17T16:23:18.747Z,12.67
2022-12-17T16:25:18.736Z,12.63
2022-12-17T16:27:18.877Z,12.67
2022-12-17T16:29:18.768Z,12.7
2022-12-17T16:31:18.786Z,12.7
2022-12-17T16:33:59.087Z,12.56
2022-12-17T16:35:59.005Z,12.64
2022-12-17T16:37:59.305Z,12.63
2022-12-17T16:40:00.261Z,12.6
2022-12-17T16:41:59.066Z,12.66
2022-12-17T16:43:59.098Z,12.6
2022-12-17T16:45:59.198Z,12.59
2022-12-17T16:48:53.812Z,12.64
2022-12-17T16:50:53.971Z,12.68
2022-12-17T16:52:54.684Z,12.78
2022-12-17T16:54:53.957Z,12.76
2022-12-17T16:56:53.873Z,12.75
2022-12-17T16:58:53.805Z,12.69
2022-12-17T17:00:53.841Z,12.68
2022-12-17T17:02:54.208Z,12.7
2022-12-17T17:04:48.806Z,12.67
2022-12-17T17:06:48.801Z,12.69
2022-12-17T17:08:48.935Z,12.69
2022-12-17T17:10:48.680Z,12.68
2022-12-17T17:12:48.780Z,12.6
2022-12-17T17:14:48.800Z,12.53
2022-12-17T17:16:49.015Z,12.54
2022-12-17T17:19:56.902Z,12.48
2022-12-17T17:21:56.868Z,12.37
2022-12-17T17:23:57.282Z,12.34
2022-12-17T17:25:57.961Z,12.36
2022-12-17T17:27:56.863Z,12.13
2022-12-17T17:30:01.357Z,11.88
2022-12-17T17:32:12.936Z,11.84
2022-12-17T17:34:53.055Z,11.96
2022-12-17T17:36:53.141Z,11.91
2022-12-17T17:38:53.031Z,11.95
2022-12-17T17:40:53.183Z,12.01
2022-12-17T17:42:52.970Z,12.1
2022-12-17T17:44:52.940Z,12.03
2022-12-17T17:46:52.974Z,12.05
2022-12-17T17:49:46.711Z,12.03
2022-12-17T17:53:46.578Z,11.97
2022-12-17T17:55:46.616Z,11.99
2022-12-17T17:57:46.592Z,11.91
2022-12-17T17:59:46.805Z,11.85
2022-12-17T18:01:46.716Z,11.78
2022-12-17T18:05:07.002Z,11.81
2022-12-17T18:09:06.936Z,11.82
2022-12-17T18:11:07.009Z,11.79
2022-12-17T18:13:06.969Z,11.78
2022-12-17T18:15:16.159Z,11.82
2022-12-17T18:17:07.057Z,11.72
2022-12-17T18:19:53.213Z,11.61
2022-12-17T18:21:53.215Z,11.48
2022-12-17T18:23:53.192Z,11.49
2022-12-17T18:25:53.293Z,11.48
2022-12-17T18:27:53.204Z,11.52
2022-12-17T18:29:53.239Z,11.6
2022-12-17T18:31:53.295Z,11.57
2022-12-17T18:33:53.279Z,11.54
2022-12-17T18:35:50.708Z,11.51
2022-12-17T18:37:50.765Z,11.58
2022-12-17T18:39:50.775Z,11.55
2022-12-17T18:41:50.962Z,11.56
2022-12-17T18:43:50.782Z,11.34
2022-12-17T18:45:50.694Z,11.31
2022-12-17T18:47:50.827Z,11.38
2022-12-17T18:50:40.719Z,10.93
2022-12-17T18:52:40.709Z,10.73
2022-12-17T18:54:40.799Z,10.62
2022-12-17T18:57:00.332Z,10.82
2022-12-17T18:58:40.828Z,11.02
2022-12-17T19:00:40.760Z,11.01
2022-12-17T19:02:40.787Z,11.01
2022-12-17T19:06:06.671Z,11.05
2022-12-17T19:08:06.531Z,10.98
2022-12-17T19:10:06.538Z,10.91
2022-12-17T19:12:06.538Z,10.89
2022-12-17T19:14:06.587Z,10.94
2022-12-17T19:16:06.556Z,10.89
2022-12-17T19:18:06.502Z,10.82
2022-12-17T19:20:50.789Z,10.92
2022-12-17T19:22:50.937Z,10.86
2022-12-17T19:24:50.779Z,10.82
2022-12-17T19:26:50.809Z,10.89
2022-12-17T19:28:50.913Z,10.84
2022-12-17T19:30:50.874Z,10.75
2022-12-17T19:32:51.226Z,10.67
2022-12-17T19:35:58.036Z,10.73
2022-12-17T19:37:58.149Z,10.7
2022-12-17T19:39:58.154Z,10.75
2022-12-17T19:41:58.221Z,10.72
2022-12-17T19:43:58.055Z,10.76
2022-12-17T19:45:58.053Z,10.75
2022-12-17T19:47:58.001Z,10.74
2022-12-17T19:51:14.256Z,10.62
2022-12-17T19:53:14.356Z,10.6
2022-12-17T19:55:14.336Z,10.5
2022-12-17T19:57:14.258Z,10.55
2022-12-17T19:59:14.212Z,10.59
2022-12-17T20:01:14.418Z,10.47
2022-12-17T20:03:16.036Z,10.59
2022-12-17T20:06:05.140Z,10.62
2022-12-17T20:08:04.732Z,10.55
2022-12-17T20:10:04.714Z,10.49
2022-12-17T20:12:04.728Z,10.29
2022-12-17T20:14:04.715Z,10.28
2022-12-17T20:16:04.729Z,10.13
2022-12-17T20:18:04.674Z,9.98
2022-12-17T20:20:04.643Z,9.78
2022-12-17T20:21:15.412Z,9.79
2022-12-17T20:23:15.407Z,9.7
2022-12-17T20:25:15.480Z,9.75
2022-12-17T20:27:15.458Z,9.79
2022-12-17T20:29:15.422Z,9.83
2022-12-17T20:31:15.497Z,9.85
2022-12-17T20:33:15.512Z,9.85
2022-12-17T20:36:28.955Z,9.77
2022-12-17T20:38:28.891Z,9.93
2022-12-17T20:40:28.927Z,10.02
2022-12-17T20:42:28.919Z,9.91
2022-12-17T20:44:28.945Z,9.72
2022-12-17T20:46:28.951Z,9.92
2022-12-17T20:48:28.897Z,10.07
2022-12-17T20:51:27.575Z,9.98
2022-12-17T20:53:27.554Z,9.84
2022-12-17T20:55:31.057Z,9.63
2022-12-17T20:57:27.631Z,9.74
2022-12-17T20:59:27.615Z,9.77
2022-12-17T21:01:27.687Z,9.9
2022-12-17T21:03:27.737Z,9.79
2022-12-17T21:05:27.621Z,9.84
2022-12-17T21:07:17.390Z,9.71
2022-12-17T21:09:17.383Z,9.75
2022-12-17T21:11:17.698Z,9.83
2022-12-17T21:13:17.422Z,9.88
2022-12-17T21:15:17.406Z,9.78
2022-12-17T21:17:17.572Z,9.7
2022-12-17T21:19:17.374Z,9.65
2022-12-17T21:22:07.509Z,9.57
2022-12-17T21:24:07.524Z,9.67
2022-12-17T21:26:08.627Z,9.64
2022-12-17T21:28:07.396Z,9.57
2022-12-17T21:30:10.966Z,9.62
2022-12-17T21:32:07.714Z,9.8
2022-12-17T21:34:07.430Z,9.84
2022-12-17T21:37:36.907Z,9.95
2022-12-17T21:39:36.985Z,9.93
2022-12-17T21:41:36.891Z,9.94
2022-12-17T21:43:36.959Z,9.79
2022-12-17T21:45:36.935Z,9.76
2022-12-17T21:47:36.829Z,9.82
2022-12-17T21:49:36.934Z,9.76
2022-12-17T21:53:02.187Z,9.8
2022-12-17T21:55:02.172Z,9.78
2022-12-17T21:57:02.102Z,9.71
2022-12-17T21:59:02.130Z,9.81
2022-12-17T22:01:02.136Z,9.81
2022-12-17T22:03:02.238Z,9.8
2022-12-17T22:05:02.182Z,9.85
2022-12-17T22:07:29.655Z,9.85
2022-12-17T22:09:39.480Z,9.78
2022-12-17T22:11:27.834Z,9.83
2022-12-17T22:13:27.837Z,9.87
2022-12-17T22:15:29.134Z,9.92
2022-12-17T22:17:27.838Z,9.83
2022-12-17T22:19:27.794Z,9.83
2022-12-17T22:23:23.293Z,9.69
2022-12-17T22:25:23.210Z,9.71
2022-12-17T22:27:23.242Z,9.51
2022-12-17T22:29:23.199Z,9.52
2022-12-17T22:31:23.325Z,9.61
2022-12-17T22:33:25.451Z,9.57
2022-12-17T22:35:56.434Z,9.59
2022-12-17T22:38:25.599Z,9.59
2022-12-17T22:42:42.338Z,9.53
2022-12-17T22:44:32.926Z,9.49
2022-12-17T22:44:39.950Z,9.5
2022-12-17T22:45:45.593Z,9.31
2022-12-17T22:47:45.543Z,9.35
2022-12-17T22:49:45.586Z,9.38
2022-12-17T22:52:56.998Z,9.33
2022-12-17T22:54:56.839Z,9.14
2022-12-17T22:57:12.646Z,9.18
2022-12-17T22:58:56.846Z,9.18
2022-12-17T23:00:56.918Z,9.14
2022-12-17T23:02:56.999Z,9.18
2022-12-17T23:04:56.923Z,9.29
2022-12-17T23:08:03.131Z,9.24
2022-12-17T23:10:03.091Z,9.13
2022-12-17T23:12:03.168Z,9.03
2022-12-17T23:14:03.453Z,8.99
2022-12-17T23:16:03.111Z,8.94
2022-12-17T23:18:03.143Z,8.9
2022-12-17T23:20:03.143Z,8.97
2022-12-17T23:22:03.117Z,8.97
2022-12-17T23:23:27.503Z,8.82
2022-12-17T23:25:27.491Z,8.84
2022-12-17T23:27:27.528Z,8.9
2022-12-17T23:29:27.469Z,8.86
2022-12-17T23:31:27.576Z,8.85
2022-12-17T23:33:27.467Z,8.77
2022-12-17T23:35:27.528Z,8.73
2022-12-17T23:38:33.908Z,8.76
2022-12-17T23:40:33.911Z,8.73
2022-12-17T23:42:33.936Z,8.45
2022-12-17T23:44:34.072Z,8.44
2022-12-17T23:46:33.924Z,8.4
2022-12-17T23:48:33.903Z,8.39
2022-12-17T23:50:33.914Z,8.2
2022-12-17T23:53:44.011Z,8.42
2022-12-17T23:55:43.942Z,8.3
2022-12-17T23:57:43.969Z,8.38
2022-12-17T23:59:44.096Z,8.38
